Ashaway, Rhode Island
Current Conditions -  °F | °C
As of 2:53 AM on Tuesday 21 Oct 2014 (Local Time) from KWST Reporting Station
Broken Clouds Broken Clouds  
Wind Chill: 16°   Ceiling: 3400
Heat Index: 16°   Visibility: 10mi
Dew Point: 11°   Wind: 8mph
Humidity: 72%   Direction: 220°SW
Pressure: 29.96"   Gusts: NA
Location:  41.43°N, 71.79°W
Report Text: KWST 210653Z AUTO 22007KT 10SM BKN034 16/11 A2996 RMK AO2 SLP146 T01560106
Loading
Personal Weather Stations






























Interactive Weather Map
Tropical Storm Tracking
New forecast layout! Learn more

10-Day Weather Forecast

Advertisements
Track Severe Weather on mobile